Time;durP1;ratioP1;P1;durP2;ratioP2;P2;SDS_P1;SDS_P2;PMS_P1;PMS_P2;Temp;Humidity;BMP_temperature;BMP_pressure;BME280_temperature;BME280_humidity;BME280_pressure;Samples;Min_cycle;Max_cycle;Signal;HPM_P1;HPM_P2
2024/01/15 00:01:29;;;;;;;10.02;1.55;;;2.00;99.90;;;;;;5041454;28;20040;-77
2024/01/15 00:03:55;;;;;;;11.10;1.48;;;2.00;99.90;;;;;;5041189;28;20378;-77
2024/01/15 00:06:20;;;;;;;15.63;2.22;;;2.10;99.90;;;;;;5071518;28;20123;-77
2024/01/15 00:08:46;;;;;;;8.70;1.50;;;2.10;99.90;;;;;;5056012;28;20111;-77
2024/01/15 00:11:12;;;;;;;11.45;1.52;;;2.10;99.90;;;;;;5041738;28;20059;-77
2024/01/15 00:13:37;;;;;;;7.13;1.20;;;2.10;99.90;;;;;;5057527;28;20044;-78
2024/01/15 00:16:05;;;;;;;8.90;1.30;;;2.10;99.90;;;;;;5055089;28;20033;-77
2024/01/15 00:18:31;;;;;;;12.32;2.25;;;2.20;99.90;;;;;;5040087;28;20052;-77
2024/01/15 00:20:56;;;;;;;7.40;1.42;;;2.30;99.90;;;;;;5058139;28;20040;-78
2024/01/15 00:23:22;;;;;;;11.63;1.73;;;2.30;99.90;;;;;;5057244;28;20035;-77
2024/01/15 00:25:48;;;;;;;6.47;1.17;;;2.30;99.90;;;;;;5050169;28;20078;-78
2024/01/15 00:28:14;;;;;;;6.38;1.02;;;2.30;99.90;;;;;;5049887;28;20410;-77
2024/01/15 00:30:39;;;;;;;10.52;1.65;;;2.40;99.90;;;;;;5057963;28;20052;-78
2024/01/15 00:33:05;;;;;;;10.77;1.55;;;2.40;99.90;;;;;;5055856;28;20045;-78
2024/01/15 00:35:31;;;;;;;5.65;1.17;;;2.30;99.90;;;;;;5037987;28;20409;-78
2024/01/15 00:37:56;;;;;;;5.82;1.42;;;2.30;99.90;;;;;;5062426;28;20405;-79
2024/01/15 00:40:22;;;;;;;6.43;1.00;;;2.20;99.90;;;;;;5040304;28;20040;-79
2024/01/15 00:42:47;;;;;;;6.93;1.30;;;2.10;99.90;;;;;;5041268;28;20040;-78
2024/01/15 00:45:13;;;;;;;8.02;1.33;;;2.20;99.90;;;;;;5029835;28;20033;-77
2024/01/15 00:47:39;;;;;;;6.38;0.90;;;2.20;99.90;;;;;;5056867;28;20054;-78
2024/01/15 00:50:05;;;;;;;4.30;1.00;;;2.20;99.90;;;;;;5039317;28;20041;-78
2024/01/15 00:52:31;;;;;;;10.07;1.30;;;2.10;99.90;;;;;;5057595;28;20085;-77
2024/01/15 00:54:56;;;;;;;11.80;1.67;;;2.20;99.90;;;;;;5037037;28;20024;-77
2024/01/15 00:57:22;;;;;;;5.53;1.10;;;2.10;99.90;;;;;;5021209;28;20033;-77
2024/01/15 00:59:48;;;;;;;11.32;2.03;;;2.00;99.90;;;;;;5030791;28;20514;-78
2024/01/15 01:02:14;;;;;;;9.65;1.42;;;2.00;99.90;;;;;;5057315;28;20082;-78
2024/01/15 01:04:40;;;;;;;8.15;1.23;;;2.00;99.90;;;;;;5040238;28;20040;-79
2024/01/15 01:07:06;;;;;;;12.70;1.48;;;2.10;99.90;;;;;;5039192;28;20071;-79
2024/01/15 01:09:31;;;;;;;7.22;1.05;;;2.00;99.90;;;;;;5032335;28;20063;-79
2024/01/15 01:11:57;;;;;;;8.02;1.45;;;1.90;99.90;;;;;;5055544;28;20123;-79
2024/01/15 01:14:23;;;;;;;8.57;0.98;;;1.80;99.90;;;;;;5064720;28;20037;-79
2024/01/15 01:16:48;;;;;;;6.68;1.20;;;1.90;99.90;;;;;;5036751;28;20047;-78
2024/01/15 01:19:14;;;;;;;6.03;1.10;;;1.80;99.90;;;;;;5044392;28;20044;-78
2024/01/15 01:21:40;;;;;;;10.98;1.40;;;1.70;99.90;;;;;;5056944;28;20056;-78
2024/01/15 01:24:06;;;;;;;7.70;1.17;;;1.70;99.90;;;;;;5054198;28;20036;-78
2024/01/15 01:26:31;;;;;;;10.07;1.60;;;1.80;99.90;;;;;;5029299;28;20037;-78
2024/01/15 01:28:57;;;;;;;12.07;2.70;;;1.70;99.90;;;;;;5023473;28;20082;-78
2024/01/15 01:31:23;;;;;;;6.28;0.98;;;1.80;99.90;;;;;;5046572;28;20116;-78
2024/01/15 01:33:49;;;;;;;11.60;1.55;;;1.80;99.90;;;;;;5036941;28;20043;-78
2024/01/15 01:36:15;;;;;;;10.85;1.30;;;1.90;99.90;;;;;;5039152;28;20123;-79
2024/01/15 01:38:41;;;;;;;9.18;1.48;;;1.90;99.90;;;;;;5072594;28;20067;-78
2024/01/15 01:41:07;;;;;;;7.90;1.45;;;1.90;99.90;;;;;;5051641;28;20044;-79
2024/01/15 01:43:33;;;;;;;12.45;1.27;;;2.00;99.90;;;;;;5055523;28;20033;-78
2024/01/15 01:46:00;;;;;;;8.27;1.40;;;2.00;99.90;;;;;;5039269;28;20043;-78
2024/01/15 01:48:26;;;;;;;8.65;1.10;;;2.00;99.90;;;;;;5039385;28;20044;-78
2024/01/15 01:51:01;;;;;;;5.97;1.15;;;2.10;99.90;;;;;;5049751;28;20501;-78
2024/01/15 01:53:29;;;;;;;7.82;1.15;;;2.10;99.90;;;;;;5053409;28;20075;-78
2024/01/15 01:55:57;;;;;;;7.90;1.10;;;2.10;99.90;;;;;;5053396;28;20041;-78
2024/01/15 01:58:22;;;;;;;4.00;0.73;;;2.10;99.90;;;;;;5037907;28;20091;-78
2024/01/15 02:00:49;;;;;;;6.20;0.85;;;2.10;99.90;;;;;;5028388;28;20072;-77
2024/01/15 02:03:15;;;;;;;4.65;1.17;;;2.10;99.90;;;;;;5038551;28;20054;-78
2024/01/15 02:05:43;;;;;;;11.95;1.75;;;2.10;99.90;;;;;;5056571;28;20468;-78
2024/01/15 02:08:08;;;;;;;7.57;0.90;;;2.20;99.90;;;;;;5053844;28;20037;-78
2024/01/15 02:10:34;;;;;;;6.85;1.00;;;2.20;99.90;;;;;;5034951;28;20044;-78
2024/01/15 02:13:00;;;;;;;4.15;0.55;;;2.10;99.90;;;;;;5033949;28;20036;-77
2024/01/15 02:15:25;;;;;;;6.97;0.65;;;2.10;99.90;;;;;;5030896;28;20070;-77
2024/01/15 02:18:01;;;;;;;3.75;1.02;;;2.10;99.90;;;;;;5017288;28;20048;-77
2024/01/15 02:20:26;;;;;;;6.10;0.90;;;2.10;99.90;;;;;;5037288;28;20053;-77
2024/01/15 02:22:52;;;;;;;5.63;0.88;;;2.10;99.90;;;;;;5033238;28;20090;-78
2024/01/15 02:25:18;;;;;;;4.50;0.77;;;2.00;99.90;;;;;;5012962;28;20162;-77
2024/01/15 02:27:45;;;;;;;4.32;0.60;;;2.00;99.90;;;;;;5032525;28;20036;-78
2024/01/15 02:30:12;;;;;;;6.50;0.95;;;2.10;99.90;;;;;;5029446;28;20101;-78
2024/01/15 02:32:38;;;;;;;6.93;1.10;;;2.10;99.90;;;;;;5036197;28;20130;-77
2024/01/15 02:35:04;;;;;;;9.38;1.42;;;2.10;99.90;;;;;;5032646;28;20067;-77
2024/01/15 02:37:30;;;;;;;3.67;0.95;;;2.00;99.90;;;;;;5014959;28;20036;-78
2024/01/15 02:39:56;;;;;;;11.10;1.48;;;2.00;99.90;;;;;;5051402;28;20029;-78
2024/01/15 02:42:21;;;;;;;8.95;1.15;;;2.00;99.90;;;;;;5021184;28;21576;-79
2024/01/15 02:44:48;;;;;;;8.80;1.20;;;1.90;99.90;;;;;;5017306;28;20036;-77
2024/01/15 02:47:14;;;;;;;11.43;1.75;;;2.00;99.90;;;;;;5029543;28;20076;-77
2024/01/15 02:49:40;;;;;;;6.20;1.75;;;2.00;99.90;;;;;;5035054;28;20210;-77
2024/01/15 02:52:06;;;;;;;10.32;1.40;;;2.00;99.90;;;;;;5036601;28;20537;-77
2024/01/15 02:54:32;;;;;;;11.65;2.10;;;2.10;99.90;;;;;;5014017;28;20037;-78
2024/01/15 02:56:57;;;;;;;10.02;1.33;;;2.00;99.90;;;;;;5032060;28;20044;-77
2024/01/15 02:59:23;;;;;;;10.50;1.52;;;2.00;99.90;;;;;;5044507;28;20504;-78
2024/01/15 03:01:48;;;;;;;11.48;1.42;;;2.00;99.90;;;;;;5013166;28;20048;-78
2024/01/15 03:04:14;;;;;;;11.95;1.98;;;2.00;99.90;;;;;;5016208;28;20443;-77
2024/01/15 03:06:40;;;;;;;7.05;1.00;;;2.10;99.90;;;;;;5011727;28;20070;-77
2024/01/15 03:09:05;;;;;;;14.80;1.92;;;2.10;99.90;;;;;;5035446;28;20056;-77
2024/01/15 03:11:40;;;;;;;15.80;2.78;;;2.10;99.90;;;;;;5030617;28;20036;-77
2024/01/15 03:14:06;;;;;;;12.27;1.95;;;2.10;99.90;;;;;;5035866;28;20051;-78
2024/01/15 03:16:31;;;;;;;9.93;1.90;;;2.10;99.90;;;;;;5054043;28;20033;-77
2024/01/15 03:18:57;;;;;;;13.50;2.67;;;2.10;99.90;;;;;;5025001;28;20106;-77
2024/01/15 03:21:23;;;;;;;8.55;1.58;;;2.10;99.90;;;;;;5010027;28;20039;-77
2024/01/15 03:23:48;;;;;;;11.40;1.75;;;2.10;99.90;;;;;;5019673;28;20029;-77
2024/01/15 03:26:14;;;;;;;14.57;1.98;;;2.10;99.90;;;;;;5048345;28;20098;-77
2024/01/15 03:28:39;;;;;;;12.57;2.65;;;2.10;99.90;;;;;;5029731;28;20045;-77
2024/01/15 03:31:05;;;;;;;10.85;1.50;;;2.10;99.90;;;;;;5021258;28;20131;-77
2024/01/15 03:33:31;;;;;;;10.98;2.17;;;2.10;99.90;;;;;;5013740;28;20048;-77
2024/01/15 03:35:56;;;;;;;11.20;1.73;;;2.10;99.90;;;;;;5017781;28;20040;-77
2024/01/15 03:38:23;;;;;;;10.38;1.60;;;2.10;99.90;;;;;;5012464;28;20036;-77
2024/01/15 03:40:49;;;;;;;14.50;1.77;;;2.10;99.90;;;;;;5032217;28;20044;-77
2024/01/15 03:43:14;;;;;;;9.88;1.60;;;2.10;99.90;;;;;;5011482;28;20397;-77
2024/01/15 03:45:40;;;;;;;9.23;1.45;;;2.20;99.90;;;;;;5036868;28;20045;-78
2024/01/15 03:48:06;;;;;;;13.23;1.45;;;2.10;99.90;;;;;;5012173;28;20064;-77
2024/01/15 03:50:31;;;;;;;10.90;1.60;;;2.20;99.90;;;;;;5052449;28;20044;-77
2024/01/15 03:52:57;;;;;;;14.05;1.90;;;2.20;99.90;;;;;;5010774;28;20040;-77
2024/01/15 03:55:23;;;;;;;9.77;1.35;;;2.20;99.90;;;;;;5035711;28;20143;-78
2024/01/15 03:57:48;;;;;;;13.13;2.40;;;2.10;99.90;;;;;;5014981;28;20045;-77
2024/01/15 04:00:17;;;;;;;14.88;2.50;;;2.10;99.90;;;;;;5013097;28;20056;-78
2024/01/15 04:02:44;;;;;;;11.50;2.22;;;2.10;99.90;;;;;;5015315;28;20488;-77
2024/01/15 04:05:09;;;;;;;10.35;1.70;;;2.10;99.90;;;;;;5012025;28;20630;-77
2024/01/15 04:07:35;;;;;;;13.52;1.60;;;2.20;99.90;;;;;;5035880;28;20467;-78
2024/01/15 04:10:01;;;;;;;12.23;3.50;;;2.30;99.90;;;;;;5013161;28;20033;-78
2024/01/15 04:12:26;;;;;;;10.95;2.25;;;2.30;99.90;;;;;;5030120;28;20448;-77
2024/01/15 04:14:52;;;;;;;8.27;1.25;;;2.30;99.90;;;;;;5063661;28;20401;-78
2024/01/15 04:17:17;;;;;;;7.53;1.42;;;2.30;99.90;;;;;;5034120;28;20045;-77
2024/01/15 04:19:47;;;;;;;8.25;1.33;;;2.30;99.90;;;;;;5035061;28;20620;-77
2024/01/15 04:22:13;;;;;;;9.40;1.42;;;2.30;99.90;;;;;;5034003;28;20046;-78
2024/01/15 04:24:39;;;;;;;10.82;1.48;;;2.20;99.90;;;;;;5035794;28;20032;-77
2024/01/15 04:27:05;;;;;;;9.93;1.25;;;2.30;99.90;;;;;;5019040;28;20031;-77
2024/01/15 04:29:31;;;;;;;12.93;1.63;;;2.20;99.90;;;;;;5030939;28;20032;-78
2024/01/15 04:31:56;;;;;;;11.65;1.67;;;2.30;99.90;;;;;;5019106;28;20040;-77
2024/01/15 04:34:22;;;;;;;10.38;1.73;;;2.30;99.90;;;;;;5013837;28;20123;-78
2024/01/15 04:36:48;;;;;;;5.10;1.10;;;2.30;99.90;;;;;;5033093;28;20040;-78
2024/01/15 04:39:13;;;;;;;9.38;1.25;;;2.30;99.90;;;;;;5019905;28;20304;-78
2024/01/15 04:41:39;;;;;;;6.03;1.23;;;2.20;99.90;;;;;;5014848;28;20488;-79
2024/01/15 04:44:05;;;;;;;7.40;1.05;;;2.20;99.90;;;;;;5016984;28;20463;-79
2024/01/15 04:46:30;;;;;;;9.45;1.35;;;2.10;99.90;;;;;;5033968;28;20045;-79
2024/01/15 04:48:56;;;;;;;5.13;0.57;;;2.10;99.90;;;;;;5036819;28;20062;-79
2024/01/15 04:51:21;;;;;;;4.65;0.73;;;2.10;99.90;;;;;;5034235;28;20066;-79
2024/01/15 04:53:47;;;;;;;4.07;0.95;;;1.90;99.90;;;;;;5033575;28;20048;-79
2024/01/15 04:56:13;;;;;;;6.70;0.90;;;1.90;99.90;;;;;;5012584;28;20047;-79
2024/01/15 04:58:38;;;;;;;4.97;0.95;;;1.90;99.90;;;;;;5036825;28;20526;-79
2024/01/15 05:01:04;;;;;;;7.32;0.90;;;1.90;99.90;;;;;;5034272;28;20509;-79
2024/01/15 05:03:30;;;;;;;5.07;0.73;;;1.80;99.90;;;;;;5035948;28;20040;-79
2024/01/15 05:05:55;;;;;;;4.50;1.55;;;1.80;99.90;;;;;;5017542;28;20084;-79
2024/01/15 05:08:21;;;;;;;5.05;0.90;;;1.80;99.90;;;;;;5033801;28;20485;-78
2024/01/15 05:10:48;;;;;;;5.90;1.13;;;1.70;99.90;;;;;;5037469;28;20552;-79
2024/01/15 05:13:13;;;;;;;4.60;0.70;;;1.70;99.90;;;;;;5037416;28;20044;-78
2024/01/15 05:15:39;;;;;;;5.90;0.60;;;1.80;99.90;;;;;;5032932;28;20047;-78
2024/01/15 05:18:06;;;;;;;4.47;0.73;;;1.70;99.90;;;;;;5037548;28;20408;-78
2024/01/15 05:20:31;;;;;;;3.35;0.70;;;1.70;99.90;;;;;;5043370;28;20048;-78
2024/01/15 05:22:57;;;;;;;5.22;1.15;;;1.70;99.90;;;;;;5017169;28;20043;-78
2024/01/15 05:25:22;;;;;;;5.28;1.40;;;1.70;99.90;;;;;;5019172;28;20029;-78
2024/01/15 05:27:48;;;;;;;2.20;0.57;;;1.70;99.90;;;;;;5033704;28;20167;-78
2024/01/15 05:30:14;;;;;;;5.97;0.88;;;1.60;99.90;;;;;;5018559;28;20036;-78
2024/01/15 05:32:40;;;;;;;9.38;1.40;;;1.60;99.90;;;;;;5038477;28;20147;-78
2024/01/15 05:35:05;;;;;;;4.15;0.85;;;1.60;99.90;;;;;;5032468;28;20139;-78
2024/01/15 05:37:31;;;;;;;3.90;0.85;;;1.70;99.90;;;;;;5033880;28;20073;-78
2024/01/15 05:39:57;;;;;;;7.32;1.67;;;1.70;99.90;;;;;;5016017;28;20140;-78
2024/01/15 05:42:22;;;;;;;4.40;0.80;;;1.70;99.90;;;;;;5038603;28;20037;-78
2024/01/15 05:44:48;;;;;;;8.57;1.02;;;1.70;99.90;;;;;;5037196;28;20059;-78
2024/01/15 05:47:14;;;;;;;9.38;1.40;;;1.80;99.90;;;;;;5048160;28;20113;-78
2024/01/15 05:49:39;;;;;;;10.13;1.10;;;1.70;99.90;;;;;;5034812;28;20561;-78
2024/01/15 05:52:05;;;;;;;10.05;1.65;;;1.90;99.90;;;;;;5034101;28;20040;-78
2024/01/15 05:54:31;;;;;;;7.78;0.95;;;1.90;99.90;;;;;;5033469;28;20453;-78
2024/01/15 05:56:56;;;;;;;9.27;1.73;;;1.90;99.90;;;;;;5032726;28;20485;-78
2024/01/15 05:59:22;;;;;;;8.93;1.25;;;1.80;99.90;;;;;;5032065;28;20053;-78
2024/01/15 06:01:48;;;;;;;10.95;1.45;;;1.80;99.90;;;;;;5051034;28;20410;-78
2024/01/15 06:04:13;;;;;;;8.98;1.30;;;1.90;99.90;;;;;;5014756;28;20040;-78
2024/01/15 06:06:39;;;;;;;5.55;1.05;;;1.80;99.90;;;;;;5019543;28;20032;-78
2024/01/15 06:09:05;;;;;;;4.70;0.90;;;1.80;99.90;;;;;;5032648;28;20040;-78
2024/01/15 06:11:34;;;;;;;5.97;1.52;;;1.90;99.90;;;;;;5035315;28;20342;-78
2024/01/15 06:14:00;;;;;;;6.25;1.02;;;1.80;99.90;;;;;;5037627;28;20279;-78
2024/01/15 06:16:26;;;;;;;5.07;1.10;;;1.80;99.90;;;;;;5037253;28;20060;-78
2024/01/15 06:18:52;;;;;;;8.23;1.10;;;1.70;99.90;;;;;;5038810;28;21393;-77
2024/01/15 06:21:18;;;;;;;4.78;1.13;;;1.70;99.90;;;;;;5052531;28;20040;-78
2024/01/15 06:23:43;;;;;;;7.47;1.13;;;1.80;99.90;;;;;;5043568;28;20037;-78
2024/01/15 06:26:11;;;;;;;5.72;1.13;;;1.80;99.90;;;;;;5032681;28;20444;-78
2024/01/15 06:28:37;;;;;;;7.53;1.83;;;1.80;99.90;;;;;;5031931;28;20044;-78
2024/01/15 06:31:03;;;;;;;8.93;0.98;;;1.90;99.90;;;;;;5018470;28;20048;-78
2024/01/15 06:33:28;;;;;;;6.22;1.15;;;1.90;99.90;;;;;;5032553;28;20136;-78
2024/01/15 06:35:54;;;;;;;9.43;1.55;;;1.90;99.90;;;;;;5029687;28;20095;-78
2024/01/15 06:38:20;;;;;;;9.38;1.33;;;1.90;99.90;;;;;;5050061;28;20073;-78
2024/01/15 06:40:48;;;;;;;7.38;1.88;;;1.80;99.90;;;;;;5055077;28;20094;-78
2024/01/15 06:43:15;;;;;;;8.20;1.60;;;1.80;99.90;;;;;;5028800;28;20045;-78
2024/01/15 06:45:40;;;;;;;9.00;1.33;;;1.90;99.90;;;;;;5050847;28;20032;-78
2024/01/15 06:48:07;;;;;;;15.63;2.92;;;1.90;99.90;;;;;;5032520;28;20043;-78
2024/01/15 06:50:33;;;;;;;6.85;1.30;;;1.90;99.90;;;;;;5051847;28;20047;-79
2024/01/15 06:52:59;;;;;;;7.78;1.40;;;1.80;99.90;;;;;;5014554;28;20048;-78
2024/01/15 06:55:25;;;;;;;7.30;1.23;;;1.70;99.90;;;;;;5046880;28;20548;-78
2024/01/15 06:57:51;;;;;;;14.13;2.03;;;1.80;99.90;;;;;;5027220;28;20158;-78
2024/01/15 07:00:17;;;;;;;12.40;1.48;;;1.90;99.90;;;;;;5048490;28;20062;-78
2024/01/15 07:02:43;;;;;;;12.40;1.77;;;1.80;99.90;;;;;;5053085;28;20063;-78
2024/01/15 07:05:09;;;;;;;12.18;1.52;;;1.80;99.90;;;;;;5030796;28;20381;-78
2024/01/15 07:07:35;;;;;;;8.60;1.55;;;1.70;99.90;;;;;;5031518;28;20055;-78
2024/01/15 07:10:01;;;;;;;11.68;1.70;;;1.80;99.90;;;;;;5013236;28;20051;-78
2024/01/15 07:12:27;;;;;;;11.90;1.70;;;1.70;99.90;;;;;;5036253;28;20048;-78
2024/01/15 07:14:54;;;;;;;18.83;1.98;;;1.60;99.90;;;;;;5036757;28;20506;-78
2024/01/15 07:17:20;;;;;;;8.32;1.33;;;1.60;99.90;;;;;;5038316;28;20056;-78
2024/01/15 07:19:46;;;;;;;12.23;1.98;;;1.60;99.90;;;;;;5036480;28;20048;-78
2024/01/15 07:22:12;;;;;;;8.27;1.52;;;1.60;99.90;;;;;;5041749;28;20477;-78
2024/01/15 07:24:37;;;;;;;9.27;1.63;;;1.60;99.90;;;;;;5035290;28;20028;-78
2024/01/15 07:27:04;;;;;;;7.40;1.25;;;1.60;99.90;;;;;;5035574;28;20082;-78
2024/01/15 07:29:32;;;;;;;14.35;2.30;;;1.60;99.90;;;;;;5019442;28;20037;-78
2024/01/15 07:31:58;;;;;;;8.65;1.35;;;1.70;99.90;;;;;;5048231;28;20048;-78
2024/01/15 07:34:24;;;;;;;8.30;1.65;;;1.80;99.90;;;;;;5015784;28;20037;-78
2024/01/15 07:36:50;;;;;;;7.63;1.20;;;1.80;99.90;;;;;;5052565;28;20048;-78
2024/01/15 07:39:15;;;;;;;10.15;1.30;;;1.80;99.90;;;;;;5030121;28;21430;-78
2024/01/15 07:41:41;;;;;;;7.80;2.08;;;1.80;99.90;;;;;;5036118;28;20033;-78
2024/01/15 07:44:06;;;;;;;8.68;1.58;;;1.80;99.90;;;;;;5032305;28;20097;-78
2024/01/15 07:46:32;;;;;;;9.00;1.52;;;1.70;99.90;;;;;;5042341;28;20029;-78
2024/01/15 07:48:58;;;;;;;5.90;1.55;;;1.70;99.90;;;;;;5034467;28;20041;-78
2024/01/15 07:51:26;;;;;;;10.95;1.70;;;1.60;99.90;;;;;;5047746;28;20045;-78
2024/01/15 07:53:55;;;;;;;9.40;1.40;;;1.60;99.90;;;;;;5051897;28;20093;-78
2024/01/15 07:56:21;;;;;;;8.45;1.20;;;1.60;99.90;;;;;;5048456;28;20048;-78
2024/01/15 07:58:47;;;;;;;8.13;1.45;;;1.60;99.90;;;;;;5039376;28;20424;-78
2024/01/15 08:01:12;;;;;;;9.63;1.50;;;1.60;99.90;;;;;;5037638;28;20135;-78
2024/01/15 08:03:38;;;;;;;10.35;1.50;;;1.70;99.90;;;;;;5040480;28;20109;-78
2024/01/15 08:06:05;;;;;;;9.30;1.23;;;1.70;99.90;;;;;;5037894;28;20071;-78
2024/01/15 08:08:30;;;;;;;8.07;0.80;;;1.70;99.90;;;;;;5045923;28;20398;-78
2024/01/15 08:10:56;;;;;;;9.70;1.52;;;1.70;99.90;;;;;;5070344;28;20051;-79
2024/01/15 08:13:22;;;;;;;7.95;1.25;;;1.70;99.90;;;;;;5049347;28;20083;-79
2024/01/15 08:15:47;;;;;;;10.75;1.27;;;1.80;99.90;;;;;;5050751;28;20538;-79
2024/01/15 08:18:13;;;;;;;10.23;1.00;;;1.80;99.90;;;;;;5040395;28;20044;-79
2024/01/15 08:20:39;;;;;;;9.77;1.20;;;1.80;99.90;;;;;;5061831;28;20451;-78
2024/01/15 08:23:05;;;;;;;6.97;1.08;;;1.80;99.90;;;;;;5056959;28;20509;-79
2024/01/15 08:25:30;;;;;;;8.65;1.65;;;1.80;99.90;;;;;;5032563;28;20120;-78
2024/01/15 08:27:57;;;;;;;6.47;1.65;;;1.80;99.90;;;;;;5038603;28;20481;-79
2024/01/15 08:30:27;;;;;;;5.55;1.02;;;1.80;99.90;;;;;;5037035;28;20055;-79
2024/01/15 08:32:53;;;;;;;7.60;1.52;;;1.80;99.90;;;;;;5054238;28;20486;-78
2024/01/15 08:35:22;;;;;;;6.75;1.73;;;1.70;99.90;;;;;;5029085;28;20405;-78
2024/01/15 08:37:49;;;;;;;5.95;1.15;;;1.70;99.90;;;;;;5025842;28;20075;-78
2024/01/15 08:40:15;;;;;;;7.93;1.23;;;1.70;99.90;;;;;;5034901;28;20049;-78
2024/01/15 08:42:41;;;;;;;5.10;0.98;;;1.70;99.90;;;;;;5050838;28;20040;-79
2024/01/15 08:45:07;;;;;;;10.20;1.77;;;1.70;99.90;;;;;;5065335;28;20425;-78
2024/01/15 08:47:33;;;;;;;11.13;1.15;;;1.70;99.90;;;;;;5052701;28;20113;-78
2024/01/15 08:49:59;;;;;;;7.65;1.27;;;1.70;99.90;;;;;;5074431;28;20033;-78
2024/01/15 08:52:24;;;;;;;7.00;1.33;;;1.70;99.90;;;;;;5052410;28;20205;-78
2024/01/15 08:54:50;;;;;;;11.25;1.45;;;1.70;99.90;;;;;;5055817;28;20085;-78
2024/01/15 08:57:16;;;;;;;9.02;1.30;;;1.70;99.90;;;;;;5038784;28;20413;-78
2024/01/15 08:59:42;;;;;;;10.85;1.38;;;1.80;99.90;;;;;;5038493;28;20048;-78
2024/01/15 09:02:07;;;;;;;9.30;1.60;;;1.80;99.90;;;;;;5070927;28;20055;-78
2024/01/15 09:04:33;;;;;;;9.93;1.60;;;1.80;99.90;;;;;;5038133;28;20033;-78
2024/01/15 09:06:59;;;;;;;12.63;1.60;;;2.00;99.90;;;;;;5055951;28;20039;-78
2024/01/15 09:09:25;;;;;;;8.35;1.65;;;2.00;99.90;;;;;;5042858;28;20037;-78
2024/01/15 09:11:51;;;;;;;8.32;1.33;;;2.00;99.90;;;;;;5041017;28;20064;-78
2024/01/15 09:14:17;;;;;;;9.48;1.20;;;2.10;99.90;;;;;;5055850;28;20121;-79
2024/01/15 09:16:42;;;;;;;7.95;1.42;;;2.00;99.90;;;;;;5040188;28;20045;-79
2024/01/15 09:19:08;;;;;;;7.10;1.58;;;2.10;99.90;;;;;;5035808;28;20538;-79
2024/01/15 09:21:34;;;;;;;7.32;1.05;;;2.10;99.90;;;;;;5050080;28;20042;-78
2024/01/15 09:23:59;;;;;;;5.95;1.13;;;2.10;99.90;;;;;;5046845;28;20029;-79
2024/01/15 09:26:25;;;;;;;8.43;1.48;;;2.10;99.90;;;;;;5056616;28;20131;-78
2024/01/15 09:28:51;;;;;;;5.30;0.82;;;2.00;99.90;;;;;;5054119;28;20554;-79
2024/01/15 09:31:18;;;;;;;1.35;0.52;;;2.00;99.90;;;;;;5052732;28;20072;-78
2024/01/15 09:33:44;;;;;;;6.00;0.90;;;2.00;99.90;;;;;;5055243;28;20097;-79
2024/01/15 09:36:09;;;;;;;5.43;1.00;;;2.00;99.90;;;;;;5037774;28;20500;-79
2024/01/15 09:38:35;;;;;;;5.03;0.90;;;2.00;99.90;;;;;;5052246;28;20405;-79
2024/01/15 09:41:00;;;;;;;3.53;0.65;;;2.00;99.90;;;;;;5037416;28;20436;-78
2024/01/15 09:43:26;;;;;;;3.10;0.65;;;2.00;99.90;;;;;;5050873;28;20032;-79
2024/01/15 09:45:53;;;;;;;5.03;1.23;;;2.00;99.90;;;;;;5053819;28;20037;-78
2024/01/15 09:48:19;;;;;;;5.07;0.95;;;2.00;99.90;;;;;;5030192;28;20037;-79
2024/01/15 09:50:45;;;;;;;6.22;0.95;;;2.00;99.90;;;;;;5062134;28;20094;-79
2024/01/15 09:53:14;;;;;;;7.07;0.95;;;2.10;99.90;;;;;;5052524;28;20044;-79
2024/01/15 09:55:39;;;;;;;9.35;1.15;;;2.20;99.90;;;;;;5038297;28;20028;-79
2024/01/15 09:58:05;;;;;;;6.30;0.90;;;2.10;99.90;;;;;;5054136;28;20037;-78
2024/01/15 10:00:35;;;;;;;9.02;1.58;;;2.10;99.90;;;;;;5067465;28;20511;-78
2024/01/15 10:03:02;;;;;;;11.45;1.48;;;2.00;99.90;;;;;;5036272;28;20032;-78
2024/01/15 10:05:28;;;;;;;5.93;0.90;;;2.00;99.90;;;;;;5056702;28;20374;-79
2024/01/15 10:07:57;;;;;;;5.97;0.73;;;2.10;99.90;;;;;;5056151;28;20040;-78
2024/01/15 10:10:23;;;;;;;5.72;1.20;;;2.10;99.90;;;;;;5043660;28;20044;-79
2024/01/15 10:12:49;;;;;;;8.30;1.02;;;2.10;99.90;;;;;;5041101;28;20606;-78
2024/01/15 10:15:17;;;;;;;7.43;1.20;;;2.10;99.90;;;;;;5037189;28;20036;-78
2024/01/15 10:17:42;;;;;;;10.18;1.52;;;2.10;99.90;;;;;;5023886;28;20512;-78
2024/01/15 10:20:12;;;;;;;5.25;1.02;;;2.20;99.90;;;;;;5022870;28;20041;-78
2024/01/15 10:22:47;;;;;;;7.90;1.85;;;2.20;99.90;;;;;;5041349;28;20048;-78
2024/01/15 10:25:13;;;;;;;11.02;1.38;;;2.30;99.90;;;;;;5033330;28;20048;-78
2024/01/15 10:27:41;;;;;;;10.73;1.55;;;2.20;99.90;;;;;;5053574;28;20086;-79
2024/01/15 10:30:08;;;;;;;8.85;1.33;;;2.20;99.90;;;;;;5037931;28;20028;-78
2024/01/15 10:32:34;;;;;;;10.73;1.60;;;2.20;99.90;;;;;;5032927;28;20036;-78
2024/01/15 10:34:59;;;;;;;10.38;1.60;;;2.40;99.90;;;;;;5035899;28;20037;-78
2024/01/15 10:37:26;;;;;;;8.45;1.48;;;2.40;99.90;;;;;;5034812;28;20131;-78
2024/01/15 10:39:53;;;;;;;9.98;1.27;;;2.40;99.90;;;;;;5047649;28;20119;-78
2024/01/15 10:42:18;;;;;;;8.20;1.33;;;2.40;99.90;;;;;;5047300;28;20044;-78
2024/01/15 10:44:48;;;;;;;5.93;1.17;;;2.50;99.90;;;;;;5047839;28;20425;-78
2024/01/15 10:47:15;;;;;;;6.22;1.33;;;2.50;99.90;;;;;;5038134;28;20040;-78
2024/01/15 10:49:41;;;;;;;10.15;1.75;;;2.60;99.90;;;;;;5051332;28;20047;-77
2024/01/15 10:52:07;;;;;;;9.00;1.35;;;2.50;99.90;;;;;;5036944;28;20044;-78
2024/01/15 10:54:33;;;;;;;11.48;2.75;;;2.50;99.90;;;;;;5038297;28;20498;-78
2024/01/15 10:56:59;;;;;;;9.02;1.30;;;2.40;99.90;;;;;;5052902;28;20076;-77
2024/01/15 10:59:25;;;;;;;10.95;1.50;;;2.40;99.90;;;;;;5038062;28;20088;-77
2024/01/15 11:01:55;;;;;;;7.43;1.55;;;2.50;99.90;;;;;;5037070;28;20151;-78
2024/01/15 11:04:23;;;;;;;7.22;1.58;;;2.60;99.90;;;;;;5037738;28;20036;-78
2024/01/15 11:06:53;;;;;;;8.05;1.25;;;2.60;99.90;;;;;;5054602;28;20074;-78
2024/01/15 11:09:18;;;;;;;6.18;0.77;;;2.60;99.90;;;;;;5036814;28;20044;-78
2024/01/15 11:11:46;;;;;;;3.90;0.98;;;2.60;99.90;;;;;;5047694;28;20036;-77
2024/01/15 11:14:38;;;;;;;5.55;1.05;;;2.60;99.90;;;;;;5047187;28;20449;-77
2024/01/15 11:17:05;;;;;;;7.50;0.90;;;2.50;99.90;;;;;;5050497;28;20044;-77
2024/01/15 11:19:45;;;;;;;4.32;0.75;;;2.50;99.90;;;;;;5036936;28;20625;-77
2024/01/15 11:22:30;;;;;;;9.00;1.40;;;2.50;99.90;;;;;;5036143;28;20115;-77
2024/01/15 11:25:22;;;;;;;4.20;0.93;;;2.60;99.90;;;;;;5057196;28;20036;-84
2024/01/15 11:27:55;;;;;;;2.70;0.50;;;2.70;99.90;;;;;;5028281;28;20045;-80
2024/01/15 11:30:25;;;;;;;5.40;0.90;;;2.60;99.90;;;;;;5044939;28;20036;-79
2024/01/15 11:32:51;;;;;;;4.57;0.73;;;2.60;99.90;;;;;;5047293;28;21828;-79
2024/01/15 11:35:16;;;;;;;1.45;0.30;;;2.50;99.90;;;;;;5064528;28;20164;-79
2024/01/15 11:37:51;;;;;;;1.88;0.40;;;2.50;99.90;;;;;;5027102;28;20403;-79
2024/01/15 11:40:22;;;;;;;4.10;0.52;;;2.50;99.90;;;;;;5028807;28;20492;-79
2024/01/15 11:42:49;;;;;;;1.17;0.33;;;2.40;99.90;;;;;;5049095;28;20044;-79
2024/01/15 11:45:20;;;;;;;1.48;0.47;;;2.40;99.90;;;;;;5026604;28;20373;-79
2024/01/15 11:48:11;;;;;;;1.45;0.40;;;2.40;99.90;;;;;;5048113;28;20146;-79
2024/01/15 11:50:42;;;;;;;0.47;0.30;;;2.40;99.90;;;;;;5064426;28;20504;-79
2024/01/15 11:53:21;;;;;;;1.27;0.28;;;2.40;99.90;;;;;;5056719;28;20461;-79
2024/01/15 11:55:48;;;;;;;5.40;0.35;;;2.40;99.90;;;;;;5034515;28;20033;-79
2024/01/15 11:58:14;;;;;;;1.52;0.30;;;2.40;99.90;;;;;;5043643;28;20037;-79
2024/01/15 12:00:51;;;;;;;4.30;0.55;;;2.40;99.90;;;;;;5040633;28;20036;-79
2024/01/15 12:03:16;;;;;;;3.28;0.40;;;2.40;99.90;;;;;;5047674;28;20062;-79
2024/01/15 12:05:42;;;;;;;3.70;0.50;;;2.40;99.90;;;;;;5035938;28;20041;-79
2024/01/15 12:08:11;;;;;;;4.60;0.50;;;2.30;99.90;;;;;;5043496;28;20039;-79
2024/01/15 12:10:39;;;;;;;3.25;0.75;;;2.30;99.90;;;;;;5047353;28;20094;-80
2024/01/15 12:13:15;;;;;;;0.80;0.30;;;2.30;99.90;;;;;;5025195;28;20072;-80
2024/01/15 12:15:43;;;;;;;1.35;0.40;;;2.30;99.90;;;;;;5045945;28;20043;-80
2024/01/15 12:18:10;;;;;;;1.15;0.50;;;2.10;99.90;;;;;;5032029;28;20047;-80
2024/01/15 12:20:36;;;;;;;1.65;0.40;;;2.00;99.90;;;;;;5034390;28;20503;-80
2024/01/15 12:23:05;;;;;;;3.92;0.63;;;2.00;99.90;;;;;;5051125;28;20025;-80
2024/01/15 12:25:32;;;;;;;2.33;0.40;;;2.00;99.90;;;;;;5053484;28;20040;-80
2024/01/15 12:27:59;;;;;;;1.08;0.30;;;2.00;99.90;;;;;;5052292;28;20032;-79
2024/01/15 12:30:31;;;;;;;3.45;0.60;;;2.00;99.90;;;;;;5034348;28;20044;-79
2024/01/15 12:32:57;;;;;;;3.22;0.60;;;2.00;99.90;;;;;;5028594;28;20127;-79
2024/01/15 12:35:26;;;;;;;1.77;0.38;;;2.10;99.90;;;;;;5053205;28;20462;-79
2024/01/15 12:37:51;;;;;;;2.35;0.70;;;2.10;99.90;;;;;;5036929;28;20037;-79
2024/01/15 12:40:21;;;;;;;2.70;0.50;;;2.10;99.90;;;;;;5051118;28;20497;-79
2024/01/15 12:42:46;;;;;;;2.83;0.55;;;2.20;99.90;;;;;;5037606;28;20040;-79
2024/01/15 12:45:12;;;;;;;5.57;0.98;;;2.20;99.90;;;;;;5038731;28;20039;-79
2024/01/15 12:47:39;;;;;;;3.00;0.45;;;2.20;99.90;;;;;;5052524;28;20116;-79
2024/01/15 12:50:12;;;;;;;4.32;0.60;;;2.20;99.90;;;;;;5032573;28;20419;-79
2024/01/15 12:52:40;;;;;;;7.25;0.93;;;2.20;99.90;;;;;;5029229;28;20065;-79